sensor_id;sensor_type;location;lat;lon;timestamp;pressure;altitude;pressure_sealevel;temperature;humidity
57644;BME280;43474;46.510;6.686;2022-08-27T00:00:12;96220.63;;;18.72;100.00
57644;BME280;43474;46.510;6.686;2022-08-27T00:02:59;96231.97;;;18.83;100.00
57644;BME280;43474;46.510;6.686;2022-08-27T00:05:27;96224.69;;;18.70;100.00
57644;BME280;43474;46.510;6.686;2022-08-27T00:07:52;96208.69;;;18.59;100.00
57644;BME280;43474;46.510;6.686;2022-08-27T00:10:21;96217.84;;;18.58;100.00
57644;BME280;43474;46.510;6.686;2022-08-27T00:12:47;96226.69;;;18.59;100.00
57644;BME280;43474;46.510;6.686;2022-08-27T00:15:14;96222.50;;;18.53;100.00
57644;BME280;43474;46.510;6.686;2022-08-27T00:17:40;96227.63;;;18.49;100.00
57644;BME280;43474;46.510;6.686;2022-08-27T00:20:06;96229.34;;;18.45;100.00
57644;BME280;43474;46.510;6.686;2022-08-27T00:22:33;96218.69;;;18.40;100.00
57644;BME280;43474;46.510;6.686;2022-08-27T00:24:59;96219.09;;;18.47;100.00
57644;BME280;43474;46.510;6.686;2022-08-27T00:27:25;96220.41;;;18.50;100.00
57644;BME280;43474;46.510;6.686;2022-08-27T00:29:51;96220.03;;;18.56;100.00
57644;BME280;43474;46.510;6.686;2022-08-27T00:32:16;96220.59;;;18.53;100.00
57644;BME280;43474;46.510;6.686;2022-08-27T00:34:42;96220.41;;;18.50;100.00
57644;BME280;43474;46.510;6.686;2022-08-27T00:37:07;96215.63;;;18.28;100.00
57644;BME280;43474;46.510;6.686;2022-08-27T00:39:34;96218.75;;;18.35;100.00
57644;BME280;43474;46.510;6.686;2022-08-27T00:42:02;96228.59;;;18.40;100.00
57644;BME280;43474;46.510;6.686;2022-08-27T00:44:28;96221.22;;;18.31;100.00
57644;BME280;43474;46.510;6.686;2022-08-27T00:46:56;96228.09;;;18.19;100.00
57644;BME280;43474;46.510;6.686;2022-08-27T00:49:48;96225.84;;;18.07;100.00
57644;BME280;43474;46.510;6.686;2022-08-27T00:52:33;96226.28;;;18.14;100.00
57644;BME280;43474;46.510;6.686;2022-08-27T00:55:06;96223.97;;;18.26;100.00
57644;BME280;43474;46.510;6.686;2022-08-27T00:57:35;96212.28;;;18.17;100.00
57644;BME280;43474;46.510;6.686;2022-08-27T01:00:08;96222.72;;;18.19;100.00
57644;BME280;43474;46.510;6.686;2022-08-27T01:02:35;96214.09;;;18.22;100.00
57644;BME280;43474;46.510;6.686;2022-08-27T01:05:06;96214.81;;;18.27;100.00
57644;BME280;43474;46.510;6.686;2022-08-27T01:07:37;96207.72;;;18.18;100.00
57644;BME280;43474;46.510;6.686;2022-08-27T01:10:06;96220.69;;;18.29;100.00
57644;BME280;43474;46.510;6.686;2022-08-27T01:12:33;96208.88;;;18.12;100.00
57644;BME280;43474;46.510;6.686;2022-08-27T01:15:00;96225.94;;;18.21;100.00
57644;BME280;43474;46.510;6.686;2022-08-27T01:17:28;96224.81;;;18.03;100.00
57644;BME280;43474;46.510;6.686;2022-08-27T01:19:59;96220.03;;;18.00;100.00
57644;BME280;43474;46.510;6.686;2022-08-27T01:25:14;96236.31;;;17.85;100.00
57644;BME280;43474;46.510;6.686;2022-08-27T01:27:41;96229.75;;;17.72;100.00
57644;BME280;43474;46.510;6.686;2022-08-27T01:30:09;96231.41;;;17.68;100.00
57644;BME280;43474;46.510;6.686;2022-08-27T01:32:36;96232.25;;;17.63;100.00
57644;BME280;43474;46.510;6.686;2022-08-27T01:35:05;96226.09;;;17.63;100.00
57644;BME280;43474;46.510;6.686;2022-08-27T01:37:31;96229.75;;;17.72;100.00
57644;BME280;43474;46.510;6.686;2022-08-27T01:39:58;96226.28;;;17.71;100.00
57644;BME280;43474;46.510;6.686;2022-08-27T01:42:29;96222.84;;;17.90;100.00
57644;BME280;43474;46.510;6.686;2022-08-27T01:44:59;96221.53;;;17.87;100.00
57644;BME280;43474;46.510;6.686;2022-08-27T01:47:27;96212.78;;;17.81;100.00
57644;BME280;43474;46.510;6.686;2022-08-27T01:49:53;96225.47;;;17.71;100.00
57644;BME280;43474;46.510;6.686;2022-08-27T01:52:22;96229.50;;;17.68;100.00
57644;BME280;43474;46.510;6.686;2022-08-27T01:54:49;96220.50;;;17.59;100.00
57644;BME280;43474;46.510;6.686;2022-08-27T01:57:19;96213.78;;;17.62;100.00
57644;BME280;43474;46.510;6.686;2022-08-27T01:59:45;96224.13;;;17.73;100.00
57644;BME280;43474;46.510;6.686;2022-08-27T02:02:13;96217.50;;;17.66;100.00
57644;BME280;43474;46.510;6.686;2022-08-27T02:04:39;96212.69;;;17.63;100.00
57644;BME280;43474;46.510;6.686;2022-08-27T02:07:06;96231.75;;;17.61;100.00
57644;BME280;43474;46.510;6.686;2022-08-27T02:09:31;96221.53;;;17.63;100.00
57644;BME280;43474;46.510;6.686;2022-08-27T02:11:57;96209.16;;;17.43;100.00
57644;BME280;43474;46.510;6.686;2022-08-27T02:14:25;96237.72;;;17.53;100.00
57644;BME280;43474;46.510;6.686;2022-08-27T02:16:51;96216.28;;;17.53;100.00
57644;BME280;43474;46.510;6.686;2022-08-27T02:19:17;96201.69;;;17.40;100.00
57644;BME280;43474;46.510;6.686;2022-08-27T02:21:43;96222.69;;;17.57;100.00
57644;BME280;43474;46.510;6.686;2022-08-27T02:24:09;96220.78;;;17.57;100.00
57644;BME280;43474;46.510;6.686;2022-08-27T02:26:34;96222.97;;;17.55;100.00
57644;BME280;43474;46.510;6.686;2022-08-27T02:29:00;96224.63;;;17.51;100.00
57644;BME280;43474;46.510;6.686;2022-08-27T02:31:26;96224.63;;;17.51;100.00
57644;BME280;43474;46.510;6.686;2022-08-27T02:33:51;96228.88;;;17.52;100.00
57644;BME280;43474;46.510;6.686;2022-08-27T02:36:17;96230.78;;;17.52;100.00
57644;BME280;43474;46.510;6.686;2022-08-27T02:38:43;96224.38;;;17.48;100.00
57644;BME280;43474;46.510;6.686;2022-08-27T02:41:09;96234.38;;;17.42;100.00
57644;BME280;43474;46.510;6.686;2022-08-27T02:43:34;96225.59;;;17.37;100.00
57644;BME280;43474;46.510;6.686;2022-08-27T02:46:01;96213.00;;;17.37;100.00
57644;BME280;43474;46.510;6.686;2022-08-27T02:48:27;96205.25;;;17.36;100.00
57644;BME280;43474;46.510;6.686;2022-08-27T02:50:52;96201.66;;;17.21;100.00
57644;BME280;43474;46.510;6.686;2022-08-27T02:53:19;96208.16;;;17.10;100.00
57644;BME280;43474;46.510;6.686;2022-08-27T02:55:44;96203.84;;;17.14;100.00
57644;BME280;43474;46.510;6.686;2022-08-27T02:58:10;96205.44;;;17.15;100.00
57644;BME280;43474;46.510;6.686;2022-08-27T03:00:39;96216.72;;;17.12;100.00
57644;BME280;43474;46.510;6.686;2022-08-27T03:03:05;96217.22;;;17.14;100.00
57644;BME280;43474;46.510;6.686;2022-08-27T03:05:30;96209.50;;;17.13;100.00
57644;BME280;43474;46.510;6.686;2022-08-27T03:07:56;96205.72;;;17.14;100.00
57644;BME280;43474;46.510;6.686;2022-08-27T03:10:23;96208.16;;;17.10;100.00
57644;BME280;43474;46.510;6.686;2022-08-27T03:12:49;96204.19;;;17.08;100.00
57644;BME280;43474;46.510;6.686;2022-08-27T03:15:17;96172.41;;;17.01;100.00
57644;BME280;43474;46.510;6.686;2022-08-27T03:17:43;96200.59;;;17.17;100.00
57644;BME280;43474;46.510;6.686;2022-08-27T03:20:28;96191.28;;;17.10;100.00
57644;BME280;43474;46.510;6.686;2022-08-27T03:22:54;96200.41;;;17.09;100.00
57644;BME280;43474;46.510;6.686;2022-08-27T03:25:20;96186.16;;;16.89;100.00
57644;BME280;43474;46.510;6.686;2022-08-27T03:27:46;96202.22;;;16.89;100.00
57644;BME280;43474;46.510;6.686;2022-08-27T03:30:14;96199.03;;;16.87;100.00
57644;BME280;43474;46.510;6.686;2022-08-27T03:32:43;96180.44;;;16.72;100.00
57644;BME280;43474;46.510;6.686;2022-08-27T03:35:10;96184.06;;;16.86;100.00
57644;BME280;43474;46.510;6.686;2022-08-27T03:37:36;96184.34;;;16.79;100.00
57644;BME280;43474;46.510;6.686;2022-08-27T03:40:02;96195.56;;;16.87;100.00
57644;BME280;43474;46.510;6.686;2022-08-27T03:42:29;96186.56;;;16.72;100.00
57644;BME280;43474;46.510;6.686;2022-08-27T03:44:54;96178.28;;;16.69;100.00
57644;BME280;43474;46.510;6.686;2022-08-27T03:47:20;96173.72;;;16.69;100.00
57644;BME280;43474;46.510;6.686;2022-08-27T03:49:47;96185.25;;;16.65;100.00
57644;BME280;43474;46.510;6.686;2022-08-27T03:52:12;96178.88;;;16.61;100.00
57644;BME280;43474;46.510;6.686;2022-08-27T03:54:39;96159.69;;;16.53;100.00
57644;BME280;43474;46.510;6.686;2022-08-27T03:57:05;96179.16;;;16.59;100.00
57644;BME280;43474;46.510;6.686;2022-08-27T03:59:31;96176.72;;;16.63;100.00
57644;BME280;43474;46.510;6.686;2022-08-27T04:01:57;96173.53;;;16.61;100.00
57644;BME280;43474;46.510;6.686;2022-08-27T04:04:23;96187.94;;;16.65;100.00
57644;BME280;43474;46.510;6.686;2022-08-27T04:06:49;96177.22;;;16.65;100.00
57644;BME280;43474;46.510;6.686;2022-08-27T04:09:17;96174.94;;;16.53;100.00
57644;BME280;43474;46.510;6.686;2022-08-27T04:11:43;96169.66;;;16.43;100.00
57644;BME280;43474;46.510;6.686;2022-08-27T04:14:09;96165.16;;;16.38;100.00
57644;BME280;43474;46.510;6.686;2022-08-27T04:16:35;96193.38;;;16.54;100.00
57644;BME280;43474;46.510;6.686;2022-08-27T04:19:02;96191.84;;;16.43;100.00
57644;BME280;43474;46.510;6.686;2022-08-27T04:21:28;96190.81;;;16.39;100.00
57644;BME280;43474;46.510;6.686;2022-08-27T04:23:54;96194.59;;;16.33;100.00
57644;BME280;43474;46.510;6.686;2022-08-27T04:26:21;96182.91;;;16.24;100.00
57644;BME280;43474;46.510;6.686;2022-08-27T04:28:47;96175.72;;;16.19;100.00
57644;BME280;43474;46.510;6.686;2022-08-27T04:31:13;96186.63;;;16.28;100.00
57644;BME280;43474;46.510;6.686;2022-08-27T04:33:39;96173.75;;;16.30;100.00
57644;BME280;43474;46.510;6.686;2022-08-27T04:36:07;96176.91;;;16.42;100.00
57644;BME280;43474;46.510;6.686;2022-08-27T04:38:34;96165.91;;;16.44;100.00
57644;BME280;43474;46.510;6.686;2022-08-27T04:41:08;96186.91;;;16.61;100.00
57644;BME280;43474;46.510;6.686;2022-08-27T04:43:48;96186.38;;;16.59;100.00
57644;BME280;43474;46.510;6.686;2022-08-27T04:46:21;96190.63;;;16.65;100.00
57644;BME280;43474;46.510;6.686;2022-08-27T04:48:47;96189.06;;;16.59;100.00
57644;BME280;43474;46.510;6.686;2022-08-27T04:51:13;96187.75;;;16.56;100.00
57644;BME280;43474;46.510;6.686;2022-08-27T04:53:38;96182.44;;;16.51;100.00
57644;BME280;43474;46.510;6.686;2022-08-27T04:56:04;96186.50;;;16.43;100.00
57644;BME280;43474;46.510;6.686;2022-08-27T04:58:30;96179.31;;;16.39;100.00
57644;BME280;43474;46.510;6.686;2022-08-27T05:00:57;96184.59;;;16.49;100.00
57644;BME280;43474;46.510;6.686;2022-08-27T05:03:27;96194.22;;;16.50;100.00
57644;BME280;43474;46.510;6.686;2022-08-27T05:06:04;96192.06;;;16.52;100.00
57644;BME280;43474;46.510;6.686;2022-08-27T05:08:30;96198.50;;;16.51;100.00
57644;BME280;43474;46.510;6.686;2022-08-27T05:10:56;96194.78;;;16.47;100.00
57644;BME280;43474;46.510;6.686;2022-08-27T05:13:22;96181.97;;;16.44;100.00
57644;BME280;43474;46.510;6.686;2022-08-27T05:15:49;96195.84;;;16.46;100.00
57644;BME280;43474;46.510;6.686;2022-08-27T05:18:15;96174.25;;;16.37;100.00
57644;BME280;43474;46.510;6.686;2022-08-27T05:20:46;96189.72;;;16.40;100.00
57644;BME280;43474;46.510;6.686;2022-08-27T05:23:14;96195.53;;;16.52;100.00
57644;BME280;43474;46.510;6.686;2022-08-27T05:25:44;96197.28;;;16.67;100.00
57644;BME280;43474;46.510;6.686;2022-08-27T05:28:11;96191.75;;;16.59;100.00
57644;BME280;43474;46.510;6.686;2022-08-27T05:30:39;96189.84;;;16.59;100.00
57644;BME280;43474;46.510;6.686;2022-08-27T05:33:05;96198.38;;;16.71;100.00
57644;BME280;43474;46.510;6.686;2022-08-27T05:35:32;96189.72;;;16.79;100.00
57644;BME280;43474;46.510;6.686;2022-08-27T05:38:04;96193.22;;;16.75;100.00
57644;BME280;43474;46.510;6.686;2022-08-27T05:40:29;96189.22;;;16.77;100.00
57644;BME280;43474;46.510;6.686;2022-08-27T05:42:54;96176.88;;;16.82;100.00
57644;BME280;43474;46.510;6.686;2022-08-27T05:45:20;96190.91;;;16.97;100.00
57644;BME280;43474;46.510;6.686;2022-08-27T05:47:46;96181.59;;;16.90;100.00
57644;BME280;43474;46.510;6.686;2022-08-27T05:50:12;96185.31;;;16.94;100.00
57644;BME280;43474;46.510;6.686;2022-08-27T05:52:37;96189.88;;;16.93;100.00
57644;BME280;43474;46.510;6.686;2022-08-27T05:55:03;96190.66;;;16.94;100.00
57644;BME280;43474;46.510;6.686;2022-08-27T05:57:29;96194.03;;;17.04;100.00
57644;BME280;43474;46.510;6.686;2022-08-27T05:59:55;96173.69;;;17.03;100.00
57644;BME280;43474;46.510;6.686;2022-08-27T06:02:52;96194.97;;;17.19;100.00
57644;BME280;43474;46.510;6.686;2022-08-27T06:05:18;96194.59;;;17.30;100.00
57644;BME280;43474;46.510;6.686;2022-08-27T06:07:44;96205.25;;;17.36;100.00
57644;BME280;43474;46.510;6.686;2022-08-27T06:10:10;96202.50;;;17.41;100.00
57644;BME280;43474;46.510;6.686;2022-08-27T06:12:36;96210.75;;;17.44;100.00
57644;BME280;43474;46.510;6.686;2022-08-27T06:15:02;96186.19;;;17.37;100.00
57644;BME280;43474;46.510;6.686;2022-08-27T06:17:28;96202.16;;;17.47;100.00
57644;BME280;43474;46.510;6.686;2022-08-27T06:19:55;96200.50;;;17.51;100.00
57644;BME280;43474;46.510;6.686;2022-08-27T06:22:21;96202.59;;;17.54;100.00
57644;BME280;43474;46.510;6.686;2022-08-27T06:24:47;96187.03;;;17.56;100.00
57644;BME280;43474;46.510;6.686;2022-08-27T06:27:14;96195.38;;;17.79;100.00
57644;BME280;43474;46.510;6.686;2022-08-27T06:29:41;96184.50;;;17.89;100.00
57644;BME280;43474;46.510;6.686;2022-08-27T06:32:07;96185.91;;;18.05;100.00
57644;BME280;43474;46.510;6.686;2022-08-27T06:34:34;96165.53;;;18.23;100.00
57644;BME280;43474;46.510;6.686;2022-08-27T06:36:59;96178.81;;;18.85;100.00
57644;BME280;43474;46.510;6.686;2022-08-27T06:39:26;96183.59;;;19.98;100.00
57644;BME280;43474;46.510;6.686;2022-08-27T06:41:52;96164.31;;;20.55;100.00
57644;BME280;43474;46.510;6.686;2022-08-27T06:44:17;96176.91;;;21.22;100.00
57644;BME280;43474;46.510;6.686;2022-08-27T06:46:43;96168.66;;;21.49;100.00
57644;BME280;43474;46.510;6.686;2022-08-27T06:49:10;96175.63;;;22.25;100.00
57644;BME280;43474;46.510;6.686;2022-08-27T06:51:37;96183.88;;;22.45;100.00
57644;BME280;43474;46.510;6.686;2022-08-27T06:54:06;96184.97;;;22.79;100.00
57644;BME280;43474;46.510;6.686;2022-08-27T06:56:33;96178.72;;;23.13;97.91
57644;BME280;43474;46.510;6.686;2022-08-27T06:59:00;96130.97;;;23.26;97.17
57644;BME280;43474;46.510;6.686;2022-08-27T07:01:29;96169.34;;;23.87;94.22
57644;BME280;43474;46.510;6.686;2022-08-27T07:03:57;96171.16;;;24.25;91.36
57644;BME280;43474;46.510;6.686;2022-08-27T07:06:25;96149.41;;;24.55;87.01
57644;BME280;43474;46.510;6.686;2022-08-27T07:08:50;96166.19;;;24.69;83.27
57644;BME280;43474;46.510;6.686;2022-08-27T07:11:16;96168.75;;;24.98;84.84
57644;BME280;43474;46.510;6.686;2022-08-27T07:13:42;96177.22;;;25.30;81.28
57644;BME280;43474;46.510;6.686;2022-08-27T07:16:16;96174.06;;;25.28;80.98
57644;BME280;43474;46.510;6.686;2022-08-27T07:18:42;96175.25;;;25.76;80.45
57644;BME280;43474;46.510;6.686;2022-08-27T07:21:09;96172.41;;;25.97;80.00
57644;BME280;43474;46.510;6.686;2022-08-27T07:23:36;96177.47;;;26.11;76.87
57644;BME280;43474;46.510;6.686;2022-08-27T07:26:08;96126.31;;;26.13;73.90
57644;BME280;43474;46.510;6.686;2022-08-27T07:28:34;96179.72;;;26.21;72.78
57644;BME280;43474;46.510;6.686;2022-08-27T07:31:00;96172.34;;;26.21;73.69
57644;BME280;43474;46.510;6.686;2022-08-27T07:33:25;96172.69;;;26.60;75.35
57644;BME280;43474;46.510;6.686;2022-08-27T07:35:51;96173.94;;;26.63;73.47
57644;BME280;43474;46.510;6.686;2022-08-27T07:38:17;96182.97;;;26.95;71.54
57644;BME280;43474;46.510;6.686;2022-08-27T07:40:43;96184.31;;;26.73;71.25
57644;BME280;43474;46.510;6.686;2022-08-27T07:43:08;96171.91;;;27.16;70.90
57644;BME280;43474;46.510;6.686;2022-08-27T07:45:53;96182.16;;;27.54;69.97
57644;BME280;43474;46.510;6.686;2022-08-27T07:48:22;96204.66;;;27.67;67.35
57644;BME280;43474;46.510;6.686;2022-08-27T07:50:49;96188.97;;;27.76;68.26
57644;BME280;43474;46.510;6.686;2022-08-27T07:53:14;96197.53;;;27.94;70.70
57644;BME280;43474;46.510;6.686;2022-08-27T07:55:40;96194.00;;;28.44;69.74
57644;BME280;43474;46.510;6.686;2022-08-27T07:58:05;96198.81;;;28.16;65.97
57644;BME280;43474;46.510;6.686;2022-08-27T08:00:32;96181.03;;;28.22;66.51
57644;BME280;43474;46.510;6.686;2022-08-27T08:02:58;96163.03;;;27.82;64.94
57644;BME280;43474;46.510;6.686;2022-08-27T08:05:24;96196.50;;;28.33;67.14
57644;BME280;43474;46.510;6.686;2022-08-27T08:07:50;96182.66;;;28.07;64.69
57644;BME280;43474;46.510;6.686;2022-08-27T08:10:16;96175.34;;;28.11;64.43
57644;BME280;43474;46.510;6.686;2022-08-27T08:12:42;96185.81;;;28.09;63.79
57644;BME280;43474;46.510;6.686;2022-08-27T08:15:09;96198.31;;;28.10;65.30
57644;BME280;43474;46.510;6.686;2022-08-27T08:17:36;96183.13;;;27.93;65.42
57644;BME280;43474;46.510;6.686;2022-08-27T08:20:03;96198.69;;;27.93;66.34
57644;BME280;43474;46.510;6.686;2022-08-27T08:22:30;96208.69;;;27.89;66.93
57644;BME280;43474;46.510;6.686;2022-08-27T08:24:55;96205.47;;;28.18;63.49
57644;BME280;43474;46.510;6.686;2022-08-27T08:27:21;96157.66;;;27.86;65.80
57644;BME280;43474;46.510;6.686;2022-08-27T08:29:47;96214.03;;;28.52;64.01
57644;BME280;43474;46.510;6.686;2022-08-27T08:32:14;96207.50;;;28.21;65.34
57644;BME280;43474;46.510;6.686;2022-08-27T08:34:40;96212.16;;;28.21;69.47
57644;BME280;43474;46.510;6.686;2022-08-27T08:37:05;96213.03;;;28.60;65.92
57644;BME280;43474;46.510;6.686;2022-08-27T08:39:32;96209.00;;;28.73;63.54
57644;BME280;43474;46.510;6.686;2022-08-27T08:42:00;96213.19;;;29.06;62.91
57644;BME280;43474;46.510;6.686;2022-08-27T08:47:12;96206.34;;;28.57;65.21
57644;BME280;43474;46.510;6.686;2022-08-27T08:57:41;96200.34;;;28.32;65.48
57644;BME280;43474;46.510;6.686;2022-08-27T09:00:17;96210.94;;;28.53;65.22
57644;BME280;43474;46.510;6.686;2022-08-27T09:02:52;96173.28;;;28.40;66.64
57644;BME280;43474;46.510;6.686;2022-08-27T09:05:20;96195.69;;;28.33;65.29
57644;BME280;43474;46.510;6.686;2022-08-27T09:07:55;96196.38;;;28.11;65.13
57644;BME280;43474;46.510;6.686;2022-08-27T09:10:36;96192.59;;;27.99;69.89
57644;BME280;43474;46.510;6.686;2022-08-27T09:13:05;96202.56;;;27.92;67.96
57644;BME280;43474;46.510;6.686;2022-08-27T09:15:36;96194.75;;;27.90;66.81
57644;BME280;43474;46.510;6.686;2022-08-27T09:18:04;96194.19;;;28.00;67.15
57644;BME280;43474;46.510;6.686;2022-08-27T09:20:32;96164.50;;;27.95;67.50
57644;BME280;43474;46.510;6.686;2022-08-27T09:25:30;96172.84;;;28.38;64.30
57644;BME280;43474;46.510;6.686;2022-08-27T09:28:05;96182.75;;;28.11;65.32
57644;BME280;43474;46.510;6.686;2022-08-27T09:30:42;96176.00;;;27.89;65.99
57644;BME280;43474;46.510;6.686;2022-08-27T09:33:08;96182.25;;;28.05;64.97
57644;BME280;43474;46.510;6.686;2022-08-27T09:35:40;96165.75;;;28.17;66.96
57644;BME280;43474;46.510;6.686;2022-08-27T09:38:07;96167.78;;;28.20;66.75
57644;BME280;43474;46.510;6.686;2022-08-27T09:40:42;96162.91;;;27.94;65.36
57644;BME280;43474;46.510;6.686;2022-08-27T09:43:22;96167.31;;;28.18;64.32
57644;BME280;43474;46.510;6.686;2022-08-27T09:45:59;96192.44;;;28.27;65.80
57644;BME280;43474;46.510;6.686;2022-08-27T09:48:29;96146.03;;;28.24;63.37
57644;BME280;43474;46.510;6.686;2022-08-27T09:50:58;96187.34;;;28.61;65.39
57644;BME280;43474;46.510;6.686;2022-08-27T09:53:42;96185.91;;;28.48;61.87
57644;BME280;43474;46.510;6.686;2022-08-27T09:56:19;96184.41;;;28.70;62.35
57644;BME280;43474;46.510;6.686;2022-08-27T09:58:53;96154.44;;;28.73;64.00
57644;BME280;43474;46.510;6.686;2022-08-27T10:01:23;96125.03;;;28.05;65.85
57644;BME280;43474;46.510;6.686;2022-08-27T10:03:49;96171.06;;;28.45;64.42
57644;BME280;43474;46.510;6.686;2022-08-27T10:06:35;96180.44;;;28.48;63.89
57644;BME280;43474;46.510;6.686;2022-08-27T10:09:09;96154.63;;;28.42;66.17
57644;BME280;43474;46.510;6.686;2022-08-27T10:12:09;96165.16;;;28.63;64.16
57644;BME280;43474;46.510;6.686;2022-08-27T10:14:35;96147.66;;;28.44;61.24
57644;BME280;43474;46.510;6.686;2022-08-27T10:17:46;96172.13;;;28.60;61.20
57644;BME280;43474;46.510;6.686;2022-08-27T10:26:06;96147.72;;;28.67;61.78
57644;BME280;43474;46.510;6.686;2022-08-27T10:36:32;96184.28;;;28.27;61.44
57644;BME280;43474;46.510;6.686;2022-08-27T10:41:42;96182.09;;;28.52;60.80
57644;BME280;43474;46.510;6.686;2022-08-27T10:52:11;96185.84;;;29.25;63.09
57644;BME280;43474;46.510;6.686;2022-08-27T10:54:42;96136.41;;;29.07;60.42
57644;BME280;43474;46.510;6.686;2022-08-27T10:57:21;96125.03;;;28.63;61.68
57644;BME280;43474;46.510;6.686;2022-08-27T11:02:57;96144.47;;;29.00;57.44
57644;BME280;43474;46.510;6.686;2022-08-27T11:05:35;96098.06;;;28.58;60.81
57644;BME280;43474;46.510;6.686;2022-08-27T11:08:12;96153.34;;;29.17;61.88
57644;BME280;43474;46.510;6.686;2022-08-27T11:10:46;96134.53;;;29.12;59.16
57644;BME280;43474;46.510;6.686;2022-08-27T11:13:14;96146.72;;;29.18;60.25
57644;BME280;43474;46.510;6.686;2022-08-27T11:15:45;96142.59;;;29.04;57.17
57644;BME280;43474;46.510;6.686;2022-08-27T11:18:14;96145.09;;;28.94;59.34
57644;BME280;43474;46.510;6.686;2022-08-27T11:20:56;96128.50;;;28.41;62.49
57644;BME280;43474;46.510;6.686;2022-08-27T11:23:42;96109.22;;;28.92;62.17
57644;BME280;43474;46.510;6.686;2022-08-27T11:26:10;96133.56;;;29.23;59.74
57644;BME280;43474;46.510;6.686;2022-08-27T11:28:45;96112.72;;;28.92;62.45
57644;BME280;43474;46.510;6.686;2022-08-27T11:31:20;96103.97;;;29.02;62.03
57644;BME280;43474;46.510;6.686;2022-08-27T11:36:37;96129.44;;;29.56;62.14
57644;BME280;43474;46.510;6.686;2022-08-27T11:44:48;96131.69;;;29.04;63.06
57644;BME280;43474;46.510;6.686;2022-08-27T11:47:23;96120.03;;;29.30;63.79
57644;BME280;43474;46.510;6.686;2022-08-27T11:49:58;96108.81;;;29.35;61.40
57644;BME280;43474;46.510;6.686;2022-08-27T11:52:29;96127.06;;;29.31;61.32
57644;BME280;43474;46.510;6.686;2022-08-27T11:57:41;96102.09;;;29.06;61.05
57644;BME280;43474;46.510;6.686;2022-08-27T12:00:28;96114.88;;;29.25;62.13
57644;BME280;43474;46.510;6.686;2022-08-27T12:03:03;96120.63;;;29.43;63.07
57644;BME280;43474;46.510;6.686;2022-08-27T12:19:32;96101.72;;;29.31;61.79
57644;BME280;43474;46.510;6.686;2022-08-27T12:27:28;96101.41;;;29.59;59.42
57644;BME280;43474;46.510;6.686;2022-08-27T12:32:44;96077.66;;;29.63;58.12
57644;BME280;43474;46.510;6.686;2022-08-27T12:35:30;96078.75;;;29.58;63.54
57644;BME280;43474;46.510;6.686;2022-08-27T12:38:21;96078.47;;;29.41;57.63
57644;BME280;43474;46.510;6.686;2022-08-27T12:40:52;96076.72;;;29.29;58.82
57644;BME280;43474;46.510;6.686;2022-08-27T12:43:23;96057.81;;;29.17;60.08
57644;BME280;43474;46.510;6.686;2022-08-27T12:48:23;96058.13;;;29.38;60.38
57644;BME280;43474;46.510;6.686;2022-08-27T12:50:52;96062.97;;;29.22;57.45
57644;BME280;43474;46.510;6.686;2022-08-27T13:01:32;96060.91;;;29.65;53.12
57644;BME280;43474;46.510;6.686;2022-08-27T13:04:01;96050.09;;;28.76;55.76
57644;BME280;43474;46.510;6.686;2022-08-27T13:06:33;96041.38;;;28.90;60.16
57644;BME280;43474;46.510;6.686;2022-08-27T13:09:06;96026.97;;;28.90;58.90
57644;BME280;43474;46.510;6.686;2022-08-27T13:11:41;96035.91;;;28.67;59.62
57644;BME280;43474;46.510;6.686;2022-08-27T13:14:19;96039.38;;;28.87;54.82
57644;BME280;43474;46.510;6.686;2022-08-27T13:16:50;96047.13;;;29.31;55.87
57644;BME280;43474;46.510;6.686;2022-08-27T13:19:27;96053.53;;;29.42;56.72
57644;BME280;43474;46.510;6.686;2022-08-27T13:21:54;96041.34;;;29.59;53.65
57644;BME280;43474;46.510;6.686;2022-08-27T13:24:27;96041.47;;;29.70;55.71
57644;BME280;43474;46.510;6.686;2022-08-27T13:26:54;96044.66;;;29.75;56.25
57644;BME280;43474;46.510;6.686;2022-08-27T13:29:21;96042.84;;;29.86;57.55
57644;BME280;43474;46.510;6.686;2022-08-27T13:31:47;96036.25;;;29.34;55.56
57644;BME280;43474;46.510;6.686;2022-08-27T13:34:17;96023.72;;;29.30;53.10
57644;BME280;43474;46.510;6.686;2022-08-27T13:36:55;96023.41;;;29.35;53.05
57644;BME280;43474;46.510;6.686;2022-08-27T13:39:22;96034.25;;;29.54;54.19
57644;BME280;43474;46.510;6.686;2022-08-27T13:41:49;96045.75;;;29.18;57.72
57644;BME280;43474;46.510;6.686;2022-08-27T13:44:23;96040.25;;;29.14;55.32
57644;BME280;43474;46.510;6.686;2022-08-27T13:46:58;96028.03;;;29.08;59.06
57644;BME280;43474;46.510;6.686;2022-08-27T13:49:27;96031.13;;;28.83;60.89
57644;BME280;43474;46.510;6.686;2022-08-27T13:52:09;96019.31;;;28.14;54.83
57644;BME280;43474;46.510;6.686;2022-08-27T13:54:45;96005.25;;;28.51;57.76
57644;BME280;43474;46.510;6.686;2022-08-27T13:57:23;95999.91;;;28.58;57.06
57644;BME280;43474;46.510;6.686;2022-08-27T13:59:49;96015.75;;;28.95;57.27
57644;BME280;43474;46.510;6.686;2022-08-27T14:02:21;96012.09;;;28.64;55.07
57644;BME280;43474;46.510;6.686;2022-08-27T14:05:01;96011.97;;;27.95;58.10
57644;BME280;43474;46.510;6.686;2022-08-27T14:07:38;96013.19;;;27.63;56.03
57644;BME280;43474;46.510;6.686;2022-08-27T14:10:20;95994.06;;;27.59;58.19
57644;BME280;43474;46.510;6.686;2022-08-27T14:13:04;96030.84;;;27.18;62.27
57644;BME280;43474;46.510;6.686;2022-08-27T14:15:38;96026.75;;;27.43;57.93
57644;BME280;43474;46.510;6.686;2022-08-27T14:18:07;96018.88;;;27.73;54.15
57644;BME280;43474;46.510;6.686;2022-08-27T14:20:33;96022.56;;;28.00;58.52
57644;BME280;43474;46.510;6.686;2022-08-27T14:23:01;96021.34;;;28.17;57.95
57644;BME280;43474;46.510;6.686;2022-08-27T14:25:26;96007.72;;;28.17;54.02
57644;BME280;43474;46.510;6.686;2022-08-27T14:27:53;96022.50;;;28.36;55.64
57644;BME280;43474;46.510;6.686;2022-08-27T14:30:23;96034.94;;;28.56;56.41
57644;BME280;43474;46.510;6.686;2022-08-27T14:32:49;96024.81;;;28.56;56.01